Terminal Aerodrome Forecast
Issued by NWS Grand Forks, ND

Home | Current Version | Previous Version | Text Only | Print | Product List | Glossary Off
Versions: 1 2 3 4 5 6 7 8 9 10 11 12

266
FTUS43 KFGF 292320
TAFGFK
TAF
KGFK 292320Z 3000/3024 05013KT P6SM FEW250
     FM300200 05009KT P6SM SKC
     FM301600 05013G22KT P6SM SKC=

USA.gov is the U.S. government's official web portal to all federal, state and local government web resources and services.